createdAt,value
2018-06-05T19:24:09.067Z,25.50
2018-06-05T19:26:37.586Z,25.50
2018-06-05T19:29:05.872Z,25.40
2018-06-05T19:31:34.202Z,25.40
2018-06-05T19:34:02.461Z,25.30
2018-06-05T19:44:21.618Z,24.50
2018-06-05T19:46:49.931Z,24.10
2018-06-05T19:49:18.189Z,23.90
2018-06-05T19:51:46.504Z,23.80
2018-06-05T19:54:14.804Z,23.70
2018-06-05T19:56:43.098Z,23.60
2018-06-05T19:59:12.003Z,23.50
2018-06-05T20:01:40.310Z,23.40
2018-06-05T20:04:08.668Z,23.40
2018-06-05T20:06:37.005Z,23.30
2018-06-05T20:09:07.435Z,23.30
2018-06-05T20:11:35.634Z,23.10
2018-06-05T20:14:03.871Z,23.10
2018-06-05T20:16:32.085Z,23.10
2018-06-05T20:19:00.694Z,23.00
2018-06-05T20:21:29.107Z,23.00
2018-06-05T20:23:57.605Z,22.90
2018-06-05T20:26:26.881Z,22.90
2018-06-05T20:28:55.249Z,22.90
2018-06-05T20:31:23.734Z,22.90
2018-06-05T20:33:51.964Z,22.90
2018-06-05T20:36:20.300Z,22.90
2018-06-05T20:38:48.662Z,22.80
2018-06-05T20:41:17.385Z,22.70
2018-06-05T20:43:45.654Z,22.70
2018-06-05T20:46:14.938Z,22.70
2018-06-05T20:48:43.349Z,22.70
2018-06-05T20:51:11.643Z,22.70
2018-06-05T20:53:39.916Z,22.80
2018-06-05T20:56:09.422Z,22.70
2018-06-05T20:58:37.749Z,22.70
2018-06-05T21:01:06.674Z,22.70
2018-06-05T21:03:34.980Z,22.60
2018-06-05T21:06:03.321Z,22.60
2018-06-05T21:08:32.527Z,22.60
2018-06-05T21:11:00.846Z,22.60
2018-06-05T21:13:29.097Z,22.50
2018-06-05T21:15:57.321Z,22.50
2018-06-05T21:18:25.579Z,22.50
2018-06-05T21:20:53.802Z,22.50
2018-06-05T21:23:22.097Z,22.50
2018-06-05T21:25:50.384Z,22.50
2018-06-05T21:28:18.618Z,22.50
2018-06-05T21:30:46.894Z,22.50
2018-06-05T21:33:15.110Z,22.40
2018-06-05T21:35:43.408Z,22.40
2018-06-05T21:38:11.721Z,22.40
2018-06-05T21:40:39.979Z,22.30
2018-06-05T21:43:08.242Z,22.30
2018-06-05T21:45:36.462Z,22.30
2018-06-05T21:48:04.758Z,22.30
2018-06-05T21:50:33.530Z,22.30
2018-06-05T21:53:01.906Z,22.30
2018-06-05T21:55:30.258Z,22.30
2018-06-05T21:57:58.665Z,22.20
2018-06-05T22:00:27.024Z,22.20
2018-06-05T22:02:55.273Z,22.20
2018-06-05T22:05:23.501Z,22.20
2018-06-05T22:07:51.721Z,22.20
2018-06-05T22:10:20.303Z,22.20
2018-06-05T22:12:48.603Z,22.20
2018-06-05T22:15:17.206Z,22.10
2018-06-05T22:17:45.458Z,22.10
2018-06-05T22:20:13.703Z,22.10
2018-06-05T22:22:42.014Z,22.10
2018-06-05T22:25:10.360Z,22.10
2018-06-05T22:27:38.607Z,22.10
2018-06-05T22:30:06.894Z,22.10
2018-06-05T22:32:35.145Z,22.10
2018-06-05T22:35:03.470Z,22.10
2018-06-05T22:37:32.308Z,22.00
2018-06-05T22:40:00.570Z,22.00
2018-06-05T22:42:28.830Z,22.00
2018-06-05T22:44:57.032Z,22.00
2018-06-05T22:47:25.321Z,22.00
2018-06-05T22:49:54.169Z,21.90
2018-06-05T22:52:22.509Z,21.90
2018-06-05T22:54:50.799Z,21.90
2018-06-05T22:57:19.013Z,21.90
2018-06-05T22:59:47.231Z,21.90
2018-06-05T23:02:15.441Z,21.80
2018-06-05T23:04:43.650Z,21.80
2018-06-05T23:07:11.857Z,21.80
2018-06-05T23:09:40.092Z,21.80
2018-06-05T23:12:08.661Z,21.80
2018-06-05T23:14:36.855Z,21.70
2018-06-05T23:17:05.107Z,21.70
2018-06-05T23:19:33.338Z,21.70
2018-06-05T23:22:01.534Z,21.70
2018-06-05T23:24:29.733Z,21.70
2018-06-05T23:26:57.945Z,21.70
2018-06-05T23:29:26.393Z,21.60
2018-06-05T23:31:54.643Z,21.60
2018-06-05T23:34:22.956Z,21.60
2018-06-05T23:36:51.278Z,21.60
2018-06-05T23:39:19.779Z,21.50
2018-06-05T23:41:48.018Z,21.50
2018-06-05T23:44:16.245Z,21.50
2018-06-05T23:46:44.481Z,21.40
2018-06-05T23:49:12.683Z,21.50
2018-06-05T23:51:40.913Z,21.50
2018-06-05T23:54:09.102Z,21.40
2018-06-05T23:56:37.334Z,21.50
2018-06-05T23:59:05.613Z,21.40
